sensor_id;sensor_type;location;lat;lon;timestamp;P1;durP1;ratioP1;P2;durP2;ratioP2
39728;SDS011;25402;42.004;23.088;2023-06-24T00:00:33;28.42;;;13.50;;
39728;SDS011;25402;42.004;23.088;2023-06-24T00:03:02;19.48;;;13.60;;
39728;SDS011;25402;42.004;23.088;2023-06-24T00:05:29;25.83;;;13.63;;
39728;SDS011;25402;42.004;23.088;2023-06-24T00:07:56;21.80;;;14.80;;
39728;SDS011;25402;42.004;23.088;2023-06-24T00:10:27;23.67;;;13.25;;
39728;SDS011;25402;42.004;23.088;2023-06-24T00:12:54;21.27;;;13.10;;
39728;SDS011;25402;42.004;23.088;2023-06-24T00:15:23;24.48;;;13.30;;
39728;SDS011;25402;42.004;23.088;2023-06-24T00:17:50;18.45;;;13.38;;
39728;SDS011;25402;42.004;23.088;2023-06-24T00:20:17;18.73;;;14.73;;
39728;SDS011;25402;42.004;23.088;2023-06-24T00:22:45;24.50;;;13.93;;
39728;SDS011;25402;42.004;23.088;2023-06-24T00:25:14;17.20;;;12.77;;
39728;SDS011;25402;42.004;23.088;2023-06-24T00:27:41;21.50;;;12.82;;
39728;SDS011;25402;42.004;23.088;2023-06-24T00:30:08;21.55;;;12.85;;
39728;SDS011;25402;42.004;23.088;2023-06-24T00:32:38;20.50;;;12.65;;
39728;SDS011;25402;42.004;23.088;2023-06-24T00:35:05;17.23;;;12.13;;
39728;SDS011;25402;42.004;23.088;2023-06-24T00:37:32;27.52;;;12.70;;
39728;SDS011;25402;42.004;23.088;2023-06-24T00:39:59;27.50;;;13.18;;
39728;SDS011;25402;42.004;23.088;2023-06-24T00:42:26;17.10;;;12.40;;
39728;SDS011;25402;42.004;23.088;2023-06-24T00:44:53;22.13;;;12.95;;
39728;SDS011;25402;42.004;23.088;2023-06-24T00:47:20;24.27;;;13.35;;
39728;SDS011;25402;42.004;23.088;2023-06-24T00:49:49;16.95;;;12.02;;
39728;SDS011;25402;42.004;23.088;2023-06-24T00:52:16;21.67;;;13.18;;
39728;SDS011;25402;42.004;23.088;2023-06-24T00:54:43;21.35;;;13.70;;
39728;SDS011;25402;42.004;23.088;2023-06-24T00:57:10;25.45;;;13.40;;
39728;SDS011;25402;42.004;23.088;2023-06-24T00:59:38;20.00;;;13.23;;
39728;SDS011;25402;42.004;23.088;2023-06-24T01:02:08;21.17;;;13.63;;
39728;SDS011;25402;42.004;23.088;2023-06-24T01:04:35;24.58;;;13.63;;
39728;SDS011;25402;42.004;23.088;2023-06-24T01:07:05;17.42;;;13.95;;
39728;SDS011;25402;42.004;23.088;2023-06-24T01:09:32;24.02;;;13.75;;
39728;SDS011;25402;42.004;23.088;2023-06-24T01:12:00;19.40;;;14.32;;
39728;SDS011;25402;42.004;23.088;2023-06-24T01:14:27;21.02;;;14.27;;
39728;SDS011;25402;42.004;23.088;2023-06-24T01:16:56;21.67;;;14.45;;
39728;SDS011;25402;42.004;23.088;2023-06-24T01:19:34;19.15;;;14.07;;
39728;SDS011;25402;42.004;23.088;2023-06-24T01:24:57;23.90;;;13.80;;
39728;SDS011;25402;42.004;23.088;2023-06-24T01:27:57;20.00;;;13.63;;
39728;SDS011;25402;42.004;23.088;2023-06-24T01:30:54;27.35;;;14.68;;
39728;SDS011;25402;42.004;23.088;2023-06-24T01:33:36;20.55;;;13.98;;
39728;SDS011;25402;42.004;23.088;2023-06-24T01:36:08;19.75;;;14.32;;
39728;SDS011;25402;42.004;23.088;2023-06-24T01:38:40;25.52;;;15.02;;
39728;SDS011;25402;42.004;23.088;2023-06-24T01:41:13;23.05;;;15.35;;
39728;SDS011;25402;42.004;23.088;2023-06-24T01:43:43;24.80;;;14.10;;
39728;SDS011;25402;42.004;23.088;2023-06-24T01:46:12;24.23;;;12.82;;
39728;SDS011;25402;42.004;23.088;2023-06-24T01:48:44;27.67;;;13.48;;
39728;SDS011;25402;42.004;23.088;2023-06-24T01:51:13;19.45;;;13.23;;
39728;SDS011;25402;42.004;23.088;2023-06-24T01:53:46;22.67;;;13.75;;
39728;SDS011;25402;42.004;23.088;2023-06-24T01:56:16;21.33;;;13.60;;
39728;SDS011;25402;42.004;23.088;2023-06-24T01:58:45;22.77;;;13.52;;
39728;SDS011;25402;42.004;23.088;2023-06-24T02:01:14;26.33;;;13.98;;
39728;SDS011;25402;42.004;23.088;2023-06-24T02:03:41;18.73;;;13.88;;
39728;SDS011;25402;42.004;23.088;2023-06-24T02:06:11;19.17;;;13.68;;
39728;SDS011;25402;42.004;23.088;2023-06-24T02:08:39;19.75;;;13.63;;
39728;SDS011;25402;42.004;23.088;2023-06-24T02:11:09;21.08;;;14.38;;
39728;SDS011;25402;42.004;23.088;2023-06-24T02:13:38;21.55;;;14.68;;
39728;SDS011;25402;42.004;23.088;2023-06-24T02:16:08;24.30;;;14.02;;
39728;SDS011;25402;42.004;23.088;2023-06-24T02:18:37;22.80;;;14.88;;
39728;SDS011;25402;42.004;23.088;2023-06-24T02:21:08;21.85;;;13.90;;
39728;SDS011;25402;42.004;23.088;2023-06-24T02:23:36;24.38;;;13.77;;
39728;SDS011;25402;42.004;23.088;2023-06-24T02:26:04;27.02;;;15.23;;
39728;SDS011;25402;42.004;23.088;2023-06-24T02:28:32;108.45;;;17.40;;
39728;SDS011;25402;42.004;23.088;2023-06-24T02:30:59;43.85;;;15.82;;
39728;SDS011;25402;42.004;23.088;2023-06-24T02:33:27;24.88;;;14.15;;
39728;SDS011;25402;42.004;23.088;2023-06-24T02:35:54;27.25;;;14.73;;
39728;SDS011;25402;42.004;23.088;2023-06-24T02:38:22;52.97;;;15.90;;
39728;SDS011;25402;42.004;23.088;2023-06-24T02:40:49;84.63;;;17.15;;
39728;SDS011;25402;42.004;23.088;2023-06-24T02:43:17;46.08;;;17.85;;
39728;SDS011;25402;42.004;23.088;2023-06-24T02:45:44;44.60;;;17.55;;
39728;SDS011;25402;42.004;23.088;2023-06-24T02:48:12;34.78;;;15.93;;
39728;SDS011;25402;42.004;23.088;2023-06-24T02:50:40;25.98;;;15.50;;
39728;SDS011;25402;42.004;23.088;2023-06-24T02:53:09;26.45;;;15.57;;
39728;SDS011;25402;42.004;23.088;2023-06-24T02:55:38;23.20;;;15.25;;
39728;SDS011;25402;42.004;23.088;2023-06-24T02:58:07;27.60;;;18.63;;
39728;SDS011;25402;42.004;23.088;2023-06-24T03:00:35;31.48;;;16.13;;
39728;SDS011;25402;42.004;23.088;2023-06-24T03:03:02;253.15;;;24.50;;
39728;SDS011;25402;42.004;23.088;2023-06-24T03:05:31;73.95;;;17.73;;
39728;SDS011;25402;42.004;23.088;2023-06-24T03:07:59;42.40;;;15.80;;
39728;SDS011;25402;42.004;23.088;2023-06-24T03:10:28;32.47;;;15.10;;
39728;SDS011;25402;42.004;23.088;2023-06-24T03:12:57;22.88;;;14.25;;
39728;SDS011;25402;42.004;23.088;2023-06-24T03:15:24;25.90;;;15.23;;
39728;SDS011;25402;42.004;23.088;2023-06-24T03:17:50;25.88;;;15.30;;
39728;SDS011;25402;42.004;23.088;2023-06-24T03:20:18;23.27;;;14.52;;
39728;SDS011;25402;42.004;23.088;2023-06-24T03:22:46;23.83;;;14.30;;
39728;SDS011;25402;42.004;23.088;2023-06-24T03:25:13;21.75;;;14.02;;
39728;SDS011;25402;42.004;23.088;2023-06-24T03:27:40;22.70;;;14.48;;
39728;SDS011;25402;42.004;23.088;2023-06-24T03:30:10;25.80;;;14.80;;
39728;SDS011;25402;42.004;23.088;2023-06-24T03:32:39;31.58;;;14.45;;
39728;SDS011;25402;42.004;23.088;2023-06-24T03:35:11;23.95;;;14.45;;
39728;SDS011;25402;42.004;23.088;2023-06-24T03:37:38;50.28;;;13.98;;
39728;SDS011;25402;42.004;23.088;2023-06-24T03:40:06;26.30;;;13.77;;
39728;SDS011;25402;42.004;23.088;2023-06-24T03:42:34;21.92;;;13.40;;
39728;SDS011;25402;42.004;23.088;2023-06-24T03:45:01;27.38;;;14.23;;
39728;SDS011;25402;42.004;23.088;2023-06-24T03:47:30;27.42;;;13.63;;
39728;SDS011;25402;42.004;23.088;2023-06-24T03:49:56;23.40;;;15.20;;
39728;SDS011;25402;42.004;23.088;2023-06-24T03:52:24;21.52;;;14.43;;
39728;SDS011;25402;42.004;23.088;2023-06-24T03:54:51;25.10;;;14.52;;
39728;SDS011;25402;42.004;23.088;2023-06-24T03:57:18;18.40;;;13.18;;
39728;SDS011;25402;42.004;23.088;2023-06-24T03:59:46;22.08;;;14.20;;
39728;SDS011;25402;42.004;23.088;2023-06-24T04:02:12;19.58;;;13.18;;
39728;SDS011;25402;42.004;23.088;2023-06-24T04:04:42;19.30;;;12.38;;
39728;SDS011;25402;42.004;23.088;2023-06-24T04:07:08;17.70;;;12.85;;
39728;SDS011;25402;42.004;23.088;2023-06-24T04:09:35;40.22;;;18.33;;
39728;SDS011;25402;42.004;23.088;2023-06-24T04:12:02;23.00;;;13.18;;
39728;SDS011;25402;42.004;23.088;2023-06-24T04:14:30;19.67;;;11.68;;
39728;SDS011;25402;42.004;23.088;2023-06-24T04:16:57;16.52;;;12.02;;
39728;SDS011;25402;42.004;23.088;2023-06-24T04:19:24;25.52;;;14.43;;
39728;SDS011;25402;42.004;23.088;2023-06-24T04:21:52;31.95;;;22.02;;
39728;SDS011;25402;42.004;23.088;2023-06-24T04:24:19;28.20;;;13.40;;
39728;SDS011;25402;42.004;23.088;2023-06-24T04:26:46;19.60;;;13.77;;
39728;SDS011;25402;42.004;23.088;2023-06-24T04:29:12;17.95;;;12.35;;
39728;SDS011;25402;42.004;23.088;2023-06-24T04:31:39;22.23;;;11.63;;
39728;SDS011;25402;42.004;23.088;2023-06-24T04:34:06;16.55;;;11.63;;
39728;SDS011;25402;42.004;23.088;2023-06-24T04:36:33;19.75;;;11.35;;
39728;SDS011;25402;42.004;23.088;2023-06-24T04:39:02;18.17;;;11.48;;
39728;SDS011;25402;42.004;23.088;2023-06-24T04:41:29;18.67;;;11.73;;
39728;SDS011;25402;42.004;23.088;2023-06-24T04:43:57;17.50;;;11.98;;
39728;SDS011;25402;42.004;23.088;2023-06-24T04:46:24;17.90;;;11.07;;
39728;SDS011;25402;42.004;23.088;2023-06-24T04:48:51;17.02;;;11.65;;
39728;SDS011;25402;42.004;23.088;2023-06-24T04:51:18;16.20;;;11.00;;
39728;SDS011;25402;42.004;23.088;2023-06-24T04:53:45;13.95;;;11.20;;
39728;SDS011;25402;42.004;23.088;2023-06-24T04:56:13;17.13;;;10.70;;
39728;SDS011;25402;42.004;23.088;2023-06-24T04:58:40;14.45;;;11.48;;
39728;SDS011;25402;42.004;23.088;2023-06-24T05:01:07;18.48;;;12.10;;
39728;SDS011;25402;42.004;23.088;2023-06-24T05:03:34;15.93;;;10.70;;
39728;SDS011;25402;42.004;23.088;2023-06-24T05:06:01;15.07;;;11.32;;
39728;SDS011;25402;42.004;23.088;2023-06-24T05:08:27;18.08;;;11.60;;
39728;SDS011;25402;42.004;23.088;2023-06-24T05:10:54;18.13;;;11.23;;
39728;SDS011;25402;42.004;23.088;2023-06-24T05:13:23;19.95;;;10.80;;
39728;SDS011;25402;42.004;23.088;2023-06-24T05:15:49;19.55;;;10.40;;
39728;SDS011;25402;42.004;23.088;2023-06-24T05:18:16;21.77;;;10.35;;
39728;SDS011;25402;42.004;23.088;2023-06-24T05:20:43;17.60;;;10.45;;
39728;SDS011;25402;42.004;23.088;2023-06-24T05:23:10;13.55;;;10.35;;
39728;SDS011;25402;42.004;23.088;2023-06-24T05:25:37;15.82;;;9.95;;
39728;SDS011;25402;42.004;23.088;2023-06-24T05:28:04;16.33;;;9.93;;
39728;SDS011;25402;42.004;23.088;2023-06-24T05:30:32;13.63;;;9.93;;
39728;SDS011;25402;42.004;23.088;2023-06-24T05:32:59;14.48;;;10.32;;
39728;SDS011;25402;42.004;23.088;2023-06-24T05:35:26;21.10;;;10.27;;
39728;SDS011;25402;42.004;23.088;2023-06-24T05:37:53;19.13;;;9.88;;
39728;SDS011;25402;42.004;23.088;2023-06-24T05:40:20;20.10;;;10.27;;
39728;SDS011;25402;42.004;23.088;2023-06-24T05:42:47;14.65;;;10.00;;
39728;SDS011;25402;42.004;23.088;2023-06-24T05:45:14;19.42;;;10.25;;
39728;SDS011;25402;42.004;23.088;2023-06-24T05:47:42;17.15;;;9.80;;
39728;SDS011;25402;42.004;23.088;2023-06-24T05:50:09;36.25;;;11.10;;
39728;SDS011;25402;42.004;23.088;2023-06-24T05:52:36;18.33;;;10.50;;
39728;SDS011;25402;42.004;23.088;2023-06-24T05:55:03;14.23;;;10.57;;
39728;SDS011;25402;42.004;23.088;2023-06-24T05:57:30;20.63;;;10.77;;
39728;SDS011;25402;42.004;23.088;2023-06-24T05:59:57;21.98;;;10.85;;
39728;SDS011;25402;42.004;23.088;2023-06-24T06:02:24;13.18;;;9.93;;
39728;SDS011;25402;42.004;23.088;2023-06-24T06:04:53;15.43;;;9.80;;
39728;SDS011;25402;42.004;23.088;2023-06-24T06:07:20;13.88;;;10.80;;
39728;SDS011;25402;42.004;23.088;2023-06-24T06:09:46;23.92;;;10.90;;
39728;SDS011;25402;42.004;23.088;2023-06-24T06:12:13;15.50;;;10.40;;
39728;SDS011;25402;42.004;23.088;2023-06-24T06:14:40;17.38;;;10.80;;
39728;SDS011;25402;42.004;23.088;2023-06-24T06:17:07;25.88;;;10.93;;
39728;SDS011;25402;42.004;23.088;2023-06-24T06:19:34;18.08;;;9.90;;
39728;SDS011;25402;42.004;23.088;2023-06-24T06:22:02;18.15;;;11.05;;
39728;SDS011;25402;42.004;23.088;2023-06-24T06:24:29;20.80;;;10.68;;
39728;SDS011;25402;42.004;23.088;2023-06-24T06:26:57;16.25;;;10.27;;
39728;SDS011;25402;42.004;23.088;2023-06-24T06:29:24;17.27;;;10.13;;
39728;SDS011;25402;42.004;23.088;2023-06-24T06:31:51;29.95;;;10.82;;
39728;SDS011;25402;42.004;23.088;2023-06-24T06:34:20;16.83;;;10.35;;
39728;SDS011;25402;42.004;23.088;2023-06-24T06:36:47;27.38;;;10.32;;
39728;SDS011;25402;42.004;23.088;2023-06-24T06:39:15;23.15;;;10.88;;
39728;SDS011;25402;42.004;23.088;2023-06-24T06:41:42;20.52;;;10.95;;
39728;SDS011;25402;42.004;23.088;2023-06-24T06:44:09;16.00;;;10.32;;
39728;SDS011;25402;42.004;23.088;2023-06-24T06:46:36;16.77;;;9.82;;
39728;SDS011;25402;42.004;23.088;2023-06-24T06:49:03;17.42;;;10.40;;
39728;SDS011;25402;42.004;23.088;2023-06-24T06:51:29;13.98;;;10.23;;
39728;SDS011;25402;42.004;23.088;2023-06-24T06:53:56;15.45;;;9.77;;
39728;SDS011;25402;42.004;23.088;2023-06-24T06:56:25;15.98;;;9.80;;
39728;SDS011;25402;42.004;23.088;2023-06-24T06:58:52;15.55;;;10.27;;
39728;SDS011;25402;42.004;23.088;2023-06-24T07:01:19;14.70;;;10.55;;
39728;SDS011;25402;42.004;23.088;2023-06-24T07:03:46;16.25;;;10.18;;
39728;SDS011;25402;42.004;23.088;2023-06-24T07:06:15;16.50;;;10.93;;
39728;SDS011;25402;42.004;23.088;2023-06-24T07:08:44;16.45;;;9.95;;
39728;SDS011;25402;42.004;23.088;2023-06-24T07:11:11;25.77;;;11.77;;
39728;SDS011;25402;42.004;23.088;2023-06-24T07:13:39;17.92;;;10.35;;
39728;SDS011;25402;42.004;23.088;2023-06-24T07:16:06;17.13;;;10.75;;
39728;SDS011;25402;42.004;23.088;2023-06-24T07:18:34;17.38;;;11.38;;
39728;SDS011;25402;42.004;23.088;2023-06-24T07:21:02;14.23;;;10.52;;
39728;SDS011;25402;42.004;23.088;2023-06-24T07:23:30;18.52;;;10.85;;
39728;SDS011;25402;42.004;23.088;2023-06-24T07:25:57;13.10;;;10.20;;
39728;SDS011;25402;42.004;23.088;2023-06-24T07:28:24;34.10;;;15.70;;
39728;SDS011;25402;42.004;23.088;2023-06-24T07:30:53;25.38;;;13.32;;
39728;SDS011;25402;42.004;23.088;2023-06-24T07:33:19;62.22;;;12.90;;
39728;SDS011;25402;42.004;23.088;2023-06-24T07:35:46;24.10;;;10.80;;
39728;SDS011;25402;42.004;23.088;2023-06-24T07:38:13;17.77;;;10.38;;
39728;SDS011;25402;42.004;23.088;2023-06-24T07:40:41;19.27;;;10.73;;
39728;SDS011;25402;42.004;23.088;2023-06-24T07:43:07;17.58;;;10.55;;
39728;SDS011;25402;42.004;23.088;2023-06-24T07:45:34;42.88;;;10.38;;
39728;SDS011;25402;42.004;23.088;2023-06-24T07:48:03;12.88;;;9.40;;
39728;SDS011;25402;42.004;23.088;2023-06-24T07:50:32;16.20;;;9.57;;
39728;SDS011;25402;42.004;23.088;2023-06-24T07:52:59;18.15;;;10.18;;
39728;SDS011;25402;42.004;23.088;2023-06-24T07:55:26;14.00;;;9.57;;
39728;SDS011;25402;42.004;23.088;2023-06-24T07:57:53;21.55;;;9.70;;
39728;SDS011;25402;42.004;23.088;2023-06-24T08:00:20;19.90;;;10.40;;
39728;SDS011;25402;42.004;23.088;2023-06-24T08:02:47;17.60;;;9.35;;
39728;SDS011;25402;42.004;23.088;2023-06-24T08:05:15;18.75;;;9.50;;
39728;SDS011;25402;42.004;23.088;2023-06-24T08:07:43;19.42;;;10.27;;
39728;SDS011;25402;42.004;23.088;2023-06-24T08:10:12;20.00;;;10.45;;
39728;SDS011;25402;42.004;23.088;2023-06-24T08:12:39;16.27;;;9.38;;
39728;SDS011;25402;42.004;23.088;2023-06-24T08:15:06;14.73;;;9.75;;
39728;SDS011;25402;42.004;23.088;2023-06-24T08:17:34;16.45;;;9.57;;
39728;SDS011;25402;42.004;23.088;2023-06-24T08:20:01;12.05;;;9.50;;
39728;SDS011;25402;42.004;23.088;2023-06-24T08:22:29;17.13;;;9.60;;
39728;SDS011;25402;42.004;23.088;2023-06-24T08:24:57;16.50;;;9.80;;
39728;SDS011;25402;42.004;23.088;2023-06-24T08:27:24;13.15;;;9.18;;
39728;SDS011;25402;42.004;23.088;2023-06-24T08:29:51;14.25;;;8.98;;
39728;SDS011;25402;42.004;23.088;2023-06-24T08:32:18;18.42;;;9.32;;
39728;SDS011;25402;42.004;23.088;2023-06-24T08:34:45;12.55;;;8.32;;
39728;SDS011;25402;42.004;23.088;2023-06-24T08:37:12;13.90;;;8.63;;
39728;SDS011;25402;42.004;23.088;2023-06-24T08:39:40;17.73;;;10.65;;
39728;SDS011;25402;42.004;23.088;2023-06-24T08:42:07;12.82;;;9.05;;
39728;SDS011;25402;42.004;23.088;2023-06-24T08:44:34;17.63;;;9.40;;
39728;SDS011;25402;42.004;23.088;2023-06-24T08:47:01;15.48;;;8.70;;
39728;SDS011;25402;42.004;23.088;2023-06-24T08:49:28;14.70;;;8.80;;
39728;SDS011;25402;42.004;23.088;2023-06-24T08:51:59;13.25;;;9.10;;
39728;SDS011;25402;42.004;23.088;2023-06-24T08:54:28;12.33;;;9.67;;
39728;SDS011;25402;42.004;23.088;2023-06-24T08:57:00;16.30;;;9.32;;
39728;SDS011;25402;42.004;23.088;2023-06-24T08:59:30;18.25;;;9.15;;
39728;SDS011;25402;42.004;23.088;2023-06-24T09:01:57;16.33;;;9.68;;
39728;SDS011;25402;42.004;23.088;2023-06-24T09:04:24;12.57;;;9.27;;
39728;SDS011;25402;42.004;23.088;2023-06-24T09:06:51;18.05;;;9.68;;
39728;SDS011;25402;42.004;23.088;2023-06-24T09:09:18;15.20;;;9.45;;
39728;SDS011;25402;42.004;23.088;2023-06-24T09:11:50;16.88;;;9.18;;
39728;SDS011;25402;42.004;23.088;2023-06-24T09:14:20;15.68;;;9.85;;
39728;SDS011;25402;42.004;23.088;2023-06-24T09:16:53;17.25;;;10.18;;
39728;SDS011;25402;42.004;23.088;2023-06-24T09:19:21;17.40;;;11.18;;
39728;SDS011;25402;42.004;23.088;2023-06-24T09:21:49;16.33;;;9.65;;
39728;SDS011;25402;42.004;23.088;2023-06-24T09:24:18;12.70;;;9.00;;
39728;SDS011;25402;42.004;23.088;2023-06-24T09:26:45;20.23;;;9.02;;
39728;SDS011;25402;42.004;23.088;2023-06-24T09:29:12;10.10;;;9.00;;
39728;SDS011;25402;42.004;23.088;2023-06-24T09:31:47;14.13;;;9.18;;
39728;SDS011;25402;42.004;23.088;2023-06-24T09:34:15;14.90;;;8.55;;
39728;SDS011;25402;42.004;23.088;2023-06-24T09:36:42;17.95;;;8.25;;
39728;SDS011;25402;42.004;23.088;2023-06-24T09:39:10;11.43;;;8.52;;
39728;SDS011;25402;42.004;23.088;2023-06-24T09:41:39;18.20;;;9.63;;
39728;SDS011;25402;42.004;23.088;2023-06-24T09:44:08;17.58;;;9.02;;
39728;SDS011;25402;42.004;23.088;2023-06-24T09:46:37;14.60;;;8.52;;
39728;SDS011;25402;42.004;23.088;2023-06-24T09:49:05;12.82;;;9.13;;
39728;SDS011;25402;42.004;23.088;2023-06-24T09:51:33;23.77;;;12.57;;
39728;SDS011;25402;42.004;23.088;2023-06-24T09:54:05;21.33;;;9.98;;
39728;SDS011;25402;42.004;23.088;2023-06-24T09:56:32;18.02;;;8.80;;
39728;SDS011;25402;42.004;23.088;2023-06-24T09:59:02;13.73;;;9.50;;
39728;SDS011;25402;42.004;23.088;2023-06-24T10:01:31;14.57;;;8.50;;
39728;SDS011;25402;42.004;23.088;2023-06-24T10:03:59;17.65;;;9.50;;
39728;SDS011;25402;42.004;23.088;2023-06-24T10:06:28;15.35;;;8.73;;
39728;SDS011;25402;42.004;23.088;2023-06-24T10:08:55;15.93;;;9.02;;
39728;SDS011;25402;42.004;23.088;2023-06-24T10:11:23;14.63;;;8.60;;
39728;SDS011;25402;42.004;23.088;2023-06-24T10:13:50;16.73;;;8.82;;
39728;SDS011;25402;42.004;23.088;2023-06-24T10:16:17;14.10;;;9.40;;
39728;SDS011;25402;42.004;23.088;2023-06-24T10:18:45;12.15;;;8.73;;
39728;SDS011;25402;42.004;23.088;2023-06-24T10:21:14;12.30;;;9.35;;
39728;SDS011;25402;42.004;23.088;2023-06-24T10:23:51;17.27;;;9.10;;
39728;SDS011;25402;42.004;23.088;2023-06-24T10:26:24;13.57;;;9.15;;
39728;SDS011;25402;42.004;23.088;2023-06-24T10:29:09;14.10;;;8.15;;
39728;SDS011;25402;42.004;23.088;2023-06-24T10:34:32;12.05;;;7.90;;
39728;SDS011;25402;42.004;23.088;2023-06-24T10:37:01;12.07;;;8.77;;
39728;SDS011;25402;42.004;23.088;2023-06-24T10:39:40;12.70;;;8.70;;
39728;SDS011;25402;42.004;23.088;2023-06-24T10:42:33;11.98;;;8.48;;
39728;SDS011;25402;42.004;23.088;2023-06-24T10:45:13;12.70;;;8.43;;
39728;SDS011;25402;42.004;23.088;2023-06-24T10:47:47;14.65;;;8.35;;
39728;SDS011;25402;42.004;23.088;2023-06-24T10:50:18;13.43;;;8.23;;
39728;SDS011;25402;42.004;23.088;2023-06-24T10:52:46;15.48;;;8.40;;
39728;SDS011;25402;42.004;23.088;2023-06-24T10:55:16;14.70;;;8.77;;
39728;SDS011;25402;42.004;23.088;2023-06-24T10:57:44;17.05;;;9.30;;
39728;SDS011;25402;42.004;23.088;2023-06-24T11:00:11;28.42;;;9.88;;
39728;SDS011;25402;42.004;23.088;2023-06-24T11:02:40;14.35;;;8.18;;
39728;SDS011;25402;42.004;23.088;2023-06-24T11:05:07;25.48;;;8.55;;
39728;SDS011;25402;42.004;23.088;2023-06-24T11:07:35;21.65;;;8.23;;
39728;SDS011;25402;42.004;23.088;2023-06-24T11:10:04;14.15;;;8.52;;
39728;SDS011;25402;42.004;23.088;2023-06-24T11:12:33;13.25;;;8.50;;
39728;SDS011;25402;42.004;23.088;2023-06-24T11:15:02;13.73;;;7.95;;
39728;SDS011;25402;42.004;23.088;2023-06-24T11:17:30;16.90;;;9.50;;
39728;SDS011;25402;42.004;23.088;2023-06-24T11:19:58;13.35;;;8.10;;
39728;SDS011;25402;42.004;23.088;2023-06-24T11:22:26;15.65;;;8.80;;
39728;SDS011;25402;42.004;23.088;2023-06-24T11:24:53;15.85;;;8.65;;
39728;SDS011;25402;42.004;23.088;2023-06-24T11:27:24;12.77;;;8.48;;
39728;SDS011;25402;42.004;23.088;2023-06-24T11:29:54;15.15;;;8.43;;
39728;SDS011;25402;42.004;23.088;2023-06-24T11:32:23;14.52;;;8.80;;
39728;SDS011;25402;42.004;23.088;2023-06-24T11:34:50;15.88;;;8.88;;
39728;SDS011;25402;42.004;23.088;2023-06-24T11:37:18;14.27;;;8.63;;
39728;SDS011;25402;42.004;23.088;2023-06-24T11:39:52;16.40;;;9.13;;
39728;SDS011;25402;42.004;23.088;2023-06-24T11:42:28;12.18;;;8.25;;
39728;SDS011;25402;42.004;23.088;2023-06-24T11:45:00;17.20;;;7.93;;
39728;SDS011;25402;42.004;23.088;2023-06-24T11:49:57;14.40;;;8.20;;
39728;SDS011;25402;42.004;23.088;2023-06-24T11:55:12;13.70;;;8.63;;
39728;SDS011;25402;42.004;23.088;2023-06-24T11:57:49;17.02;;;8.73;;
39728;SDS011;25402;42.004;23.088;2023-06-24T12:00:20;14.00;;;9.15;;
39728;SDS011;25402;42.004;23.088;2023-06-24T12:02:49;13.32;;;8.95;;
39728;SDS011;25402;42.004;23.088;2023-06-24T12:05:24;19.58;;;8.40;;
39728;SDS011;25402;42.004;23.088;2023-06-24T12:07:56;16.88;;;8.63;;
39728;SDS011;25402;42.004;23.088;2023-06-24T12:10:24;13.70;;;8.70;;
39728;SDS011;25402;42.004;23.088;2023-06-24T12:12:52;14.50;;;8.43;;
39728;SDS011;25402;42.004;23.088;2023-06-24T12:15:20;12.48;;;8.70;;
39728;SDS011;25402;42.004;23.088;2023-06-24T12:17:47;12.13;;;8.50;;
39728;SDS011;25402;42.004;23.088;2023-06-24T12:20:14;13.57;;;9.25;;
39728;SDS011;25402;42.004;23.088;2023-06-24T12:22:44;78.82;;;12.35;;
39728;SDS011;25402;42.004;23.088;2023-06-24T12:25:11;20.75;;;9.13;;
39728;SDS011;25402;42.004;23.088;2023-06-24T12:27:39;14.68;;;9.65;;
39728;SDS011;25402;42.004;23.088;2023-06-24T12:30:08;19.83;;;9.63;;
39728;SDS011;25402;42.004;23.088;2023-06-24T12:32:37;15.48;;;9.45;;
39728;SDS011;25402;42.004;23.088;2023-06-24T12:35:05;16.05;;;9.32;;
39728;SDS011;25402;42.004;23.088;2023-06-24T12:37:34;22.00;;;9.70;;
39728;SDS011;25402;42.004;23.088;2023-06-24T12:40:01;19.80;;;8.90;;
39728;SDS011;25402;42.004;23.088;2023-06-24T12:42:29;21.65;;;9.77;;
39728;SDS011;25402;42.004;23.088;2023-06-24T12:44:56;20.48;;;9.80;;
39728;SDS011;25402;42.004;23.088;2023-06-24T12:47:23;25.90;;;8.68;;
39728;SDS011;25402;42.004;23.088;2023-06-24T12:49:51;19.88;;;9.05;;
39728;SDS011;25402;42.004;23.088;2023-06-24T12:52:18;30.75;;;10.82;;
39728;SDS011;25402;42.004;23.088;2023-06-24T12:54:45;38.25;;;9.55;;
39728;SDS011;25402;42.004;23.088;2023-06-24T12:57:13;28.70;;;8.52;;
39728;SDS011;25402;42.004;23.088;2023-06-24T12:59:40;26.73;;;7.20;;
39728;SDS011;25402;42.004;23.088;2023-06-24T13:02:07;25.23;;;7.30;;
39728;SDS011;25402;42.004;23.088;2023-06-24T13:04:34;24.55;;;7.80;;
39728;SDS011;25402;42.004;23.088;2023-06-24T13:07:02;31.65;;;7.75;;
39728;SDS011;25402;42.004;23.088;2023-06-24T13:09:30;33.20;;;8.63;;
39728;SDS011;25402;42.004;23.088;2023-06-24T13:11:57;59.75;;;9.10;;
39728;SDS011;25402;42.004;23.088;2023-06-24T13:14:23;79.35;;;14.48;;
39728;SDS011;25402;42.004;23.088;2023-06-24T13:16:53;84.97;;;16.05;;
39728;SDS011;25402;42.004;23.088;2023-06-24T13:19:20;48.97;;;13.35;;
39728;SDS011;25402;42.004;23.088;2023-06-24T13:21:47;46.47;;;13.95;;
39728;SDS011;25402;42.004;23.088;2023-06-24T13:24:15;39.60;;;13.23;;
39728;SDS011;25402;42.004;23.088;2023-06-24T13:26:42;45.85;;;14.20;;
39728;SDS011;25402;42.004;23.088;2023-06-24T13:29:09;45.70;;;13.82;;
39728;SDS011;25402;42.004;23.088;2023-06-24T13:31:36;41.03;;;13.00;;
39728;SDS011;25402;42.004;23.088;2023-06-24T13:34:03;35.67;;;11.80;;
39728;SDS011;25402;42.004;23.088;2023-06-24T13:36:31;43.13;;;12.70;;
39728;SDS011;25402;42.004;23.088;2023-06-24T13:39:00;30.30;;;12.27;;
39728;SDS011;25402;42.004;23.088;2023-06-24T13:41:30;37.10;;;12.88;;
39728;SDS011;25402;42.004;23.088;2023-06-24T13:43:58;25.40;;;12.15;;
39728;SDS011;25402;42.004;23.088;2023-06-24T13:46:26;29.77;;;10.80;;
39728;SDS011;25402;42.004;23.088;2023-06-24T13:48:53;27.15;;;12.45;;
39728;SDS011;25402;42.004;23.088;2023-06-24T13:51:21;29.40;;;11.50;;
39728;SDS011;25402;42.004;23.088;2023-06-24T13:53:49;40.25;;;11.98;;
39728;SDS011;25402;42.004;23.088;2023-06-24T13:56:17;35.67;;;11.50;;
39728;SDS011;25402;42.004;23.088;2023-06-24T13:58:46;32.75;;;11.20;;
39728;SDS011;25402;42.004;23.088;2023-06-24T14:01:14;35.85;;;10.80;;
39728;SDS011;25402;42.004;23.088;2023-06-24T14:03:41;26.13;;;10.80;;
39728;SDS011;25402;42.004;23.088;2023-06-24T14:06:09;25.05;;;11.00;;
39728;SDS011;25402;42.004;23.088;2023-06-24T14:08:36;33.47;;;10.95;;
39728;SDS011;25402;42.004;23.088;2023-06-24T14:11:03;27.98;;;10.07;;
39728;SDS011;25402;42.004;23.088;2023-06-24T14:13:30;27.02;;;10.05;;
39728;SDS011;25402;42.004;23.088;2023-06-24T14:15:59;31.98;;;9.73;;
39728;SDS011;25402;42.004;23.088;2023-06-24T14:18:26;36.55;;;10.77;;
39728;SDS011;25402;42.004;23.088;2023-06-24T14:20:53;29.50;;;9.73;;
39728;SDS011;25402;42.004;23.088;2023-06-24T14:23:19;30.20;;;10.63;;
39728;SDS011;25402;42.004;23.088;2023-06-24T14:25:46;28.38;;;10.50;;
39728;SDS011;25402;42.004;23.088;2023-06-24T14:28:13;27.80;;;10.93;;
39728;SDS011;25402;42.004;23.088;2023-06-24T14:30:40;27.60;;;10.43;;